Terminal Aerodrome Forecast
Issued by NWS Albany, NY

Home | Current Version | Previous Version | Text Only | Print | Product List | Glossary On
Versions: 1 2 3 4 5 6 7 8 9 10 11 12 13 14 15 16 17 18 19 20 21 22 23 24
000
FTUS41 KALY 282359 CCA
TAFPOU
TAF COR
KPOU 282359Z 2900/2924 01004KT 4SM -SHRA BR OVC035
      TEMPO 2900/2902 2SM -SHRA BR BKN015 OVC035
     FM290400 VRB03KT 4SM BR OVC015
      TEMPO 2908/2912 2SM BR OVC008
     FM291400 35008KT P6SM BKN025
     FM291600 34010G18KT P6SM BKN035
     FM291800 33013G23KT P6SM SCT035=

USA.gov is the U.S. government's official web portal to all federal, state and local government web resources and services.